createdAt,value
2022-08-22T00:02:46.314Z,99.27
2022-08-22T00:02:52.693Z,82.88
2022-08-22T00:02:53.605Z,96.34
2022-08-22T00:02:54.996Z,100.00
2022-08-22T00:02:56.789Z,89.57
2022-08-22T00:03:16.060Z,100.00
2022-08-22T00:06:08.108Z,100.00
2022-08-22T00:09:12.961Z,100.00
2022-08-22T00:12:15.675Z,100.00
2022-08-22T00:15:13.217Z,100.00
2022-08-22T00:18:28.508Z,100.00
2022-08-22T00:21:32.765Z,100.00
2022-08-22T00:24:41.625Z,100.00
2022-08-22T00:27:34.112Z,100.00
2022-08-22T00:30:19.945Z,100.00
2022-08-22T00:33:18.360Z,100.00
2022-08-22T00:36:18.853Z,100.00
2022-08-22T00:39:15.847Z,100.00
2022-08-22T00:42:44.299Z,100.00
2022-08-22T00:45:44.729Z,100.00
2022-08-22T00:48:46.072Z,100.00
2022-08-22T00:52:08.877Z,100.00
2022-08-22T00:55:14.276Z,100.00
2022-08-22T00:58:25.635Z,100.00
2022-08-22T01:01:14.457Z,100.00
2022-08-22T01:04:21.957Z,100.00
2022-08-22T01:07:23.219Z,100.00
2022-08-22T01:10:29.481Z,100.00
2022-08-22T01:13:43.695Z,100.00
2022-08-22T01:16:35.082Z,100.00
2022-08-22T01:19:58.424Z,100.00
2022-08-22T01:23:20.689Z,100.00
2022-08-22T01:26:25.071Z,100.00
2022-08-22T01:29:28.401Z,100.00
2022-08-22T01:32:57.686Z,100.00
2022-08-22T01:36:03.620Z,100.00
2022-08-22T01:39:03.075Z,100.00
2022-08-22T01:42:25.115Z,100.00
2022-08-22T01:45:40.997Z,100.00
2022-08-22T01:48:54.239Z,100.00
2022-08-22T01:51:51.674Z,100.00
2022-08-22T01:54:54.789Z,100.00
2022-08-22T01:57:56.230Z,100.00
2022-08-22T02:01:03.182Z,100.00
2022-08-22T02:04:04.964Z,100.00
2022-08-22T02:07:04.113Z,100.00
2022-08-22T02:10:10.574Z,100.00
2022-08-22T02:13:17.330Z,100.00
2022-08-22T02:16:32.041Z,100.00
2022-08-22T02:19:17.773Z,100.00
2022-08-22T02:22:19.695Z,100.00
2022-08-22T02:25:17.954Z,100.00
2022-08-22T02:28:15.834Z,100.00
2022-08-22T02:31:16.849Z,100.00
2022-08-22T02:34:33.975Z,100.00
2022-08-22T02:37:31.981Z,100.00
2022-08-22T02:40:30.426Z,100.00
2022-08-22T02:43:23.969Z,100.00
2022-08-22T02:46:22.124Z,100.00
2022-08-22T02:49:24.070Z,100.00
2022-08-22T02:52:18.814Z,100.00
2022-08-22T02:55:11.584Z,100.00
2022-08-22T02:58:08.527Z,100.00
2022-08-22T03:01:02.676Z,100.00
2022-08-22T03:03:49.019Z,100.00
2022-08-22T03:06:42.836Z,100.00
2022-08-22T03:09:37.025Z,100.00
2022-08-22T03:12:33.257Z,100.00
2022-08-22T03:15:28.051Z,100.00
2022-08-22T03:18:20.172Z,100.00
2022-08-22T03:21:09.432Z,100.00
2022-08-22T03:24:01.803Z,100.00
2022-08-22T03:27:08.780Z,100.00
2022-08-22T03:30:01.348Z,100.00
2022-08-22T03:32:54.610Z,100.00
2022-08-22T03:35:46.020Z,100.00
2022-08-22T03:38:34.100Z,100.00
2022-08-22T03:41:49.211Z,100.00
2022-08-22T03:44:43.651Z,100.00
2022-08-22T03:47:38.536Z,100.00
2022-08-22T03:50:45.419Z,100.00
2022-08-22T03:54:03.127Z,100.00
2022-08-22T03:57:24.219Z,100.00
2022-08-22T04:00:29.247Z,100.00
2022-08-22T04:03:42.844Z,100.00
2022-08-22T04:06:57.097Z,100.00
2022-08-22T04:10:13.850Z,100.00
2022-08-22T04:13:28.994Z,100.00
2022-08-22T04:16:43.326Z,100.00
2022-08-22T04:20:13.314Z,100.00
2022-08-22T04:23:41.213Z,100.00
2022-08-22T04:26:51.347Z,100.00
2022-08-22T04:29:49.803Z,100.00
2022-08-22T04:32:49.991Z,100.00
2022-08-22T04:35:51.378Z,100.00
2022-08-22T04:38:44.379Z,100.00
2022-08-22T04:42:29.208Z,100.00
2022-08-22T04:45:31.931Z,100.00
2022-08-22T04:48:23.773Z,100.00
2022-08-22T04:51:33.161Z,100.00
2022-08-22T04:54:53.444Z,100.00
2022-08-22T04:58:06.405Z,100.00
2022-08-22T05:01:11.938Z,100.00
2022-08-22T05:04:07.329Z,100.00
2022-08-22T05:07:03.182Z,100.00
2022-08-22T05:10:09.291Z,100.00
2022-08-22T05:13:02.671Z,100.00
2022-08-22T05:15:51.930Z,100.00
2022-08-22T05:18:45.104Z,100.00
2022-08-22T05:21:37.189Z,100.00
2022-08-22T05:24:37.408Z,100.00
2022-08-22T05:27:31.252Z,100.00
2022-08-22T05:30:28.362Z,100.00
2022-08-22T05:33:26.590Z,100.00
2022-08-22T05:36:28.801Z,100.00
2022-08-22T05:39:18.759Z,100.00
2022-08-22T05:42:04.735Z,100.00
2022-08-22T05:44:50.584Z,100.00
2022-08-22T05:48:07.856Z,100.00
2022-08-22T05:51:04.460Z,100.00
2022-08-22T05:53:56.622Z,100.00
2022-08-22T05:56:47.161Z,100.00
2022-08-22T05:59:38.287Z,100.00
2022-08-22T06:02:38.925Z,100.00
2022-08-22T06:05:36.279Z,100.00
2022-08-22T06:08:31.683Z,100.00
2022-08-22T06:11:25.514Z,100.00
2022-08-22T06:14:40.401Z,100.00
2022-08-22T06:17:34.602Z,100.00
2022-08-22T06:20:25.817Z,100.00
2022-08-22T06:23:24.760Z,99.88
2022-08-22T06:26:21.210Z,100.00
2022-08-22T06:29:09.283Z,99.27
2022-08-22T06:31:56.377Z,99.06
2022-08-22T06:34:45.233Z,96.91
2022-08-22T06:37:35.297Z,96.83
2022-08-22T06:40:21.724Z,96.32
2022-08-22T06:43:07.796Z,93.88
2022-08-22T06:45:53.434Z,92.99
2022-08-22T06:48:39.020Z,91.10
2022-08-22T06:51:27.759Z,89.93
2022-08-22T06:54:21.984Z,87.93
2022-08-22T06:57:27.020Z,87.79
2022-08-22T07:00:16.981Z,85.82
2022-08-22T07:03:13.168Z,86.67
2022-08-22T07:05:59.573Z,85.08
2022-08-22T07:08:46.089Z,82.74
2022-08-22T07:11:37.075Z,81.80
2022-08-22T07:14:41.587Z,80.39
2022-08-22T07:17:31.135Z,79.94
2022-08-22T07:20:24.496Z,79.13
2022-08-22T07:23:12.780Z,78.05
2022-08-22T07:26:08.901Z,75.00
2022-08-22T07:29:11.497Z,74.87
2022-08-22T07:32:10.672Z,72.93
2022-08-22T07:35:19.226Z,70.82
2022-08-22T07:38:33.231Z,70.86
2022-08-22T07:41:24.874Z,69.09
2022-08-22T07:44:23.995Z,68.62
2022-08-22T07:47:17.994Z,67.81
2022-08-22T07:50:12.850Z,64.45
2022-08-22T07:53:09.860Z,62.44
2022-08-22T07:55:57.695Z,60.76
2022-08-22T07:58:47.677Z,59.51
2022-08-22T08:01:34.174Z,58.38
2022-08-22T08:04:24.794Z,56.46
2022-08-22T08:07:14.741Z,54.91
2022-08-22T08:10:08.854Z,55.47
2022-08-22T08:13:02.478Z,53.33
2022-08-22T08:15:50.586Z,52.03
2022-08-22T08:18:39.107Z,50.62
2022-08-22T08:21:33.423Z,49.80
2022-08-22T08:24:41.354Z,49.35
2022-08-22T08:27:53.608Z,49.20
2022-08-22T08:30:44.811Z,47.16
2022-08-22T08:33:32.168Z,46.28
2022-08-22T08:36:38.894Z,43.61
2022-08-22T08:39:35.390Z,44.77
2022-08-22T08:43:10.704Z,45.32
2022-08-22T08:46:34.553Z,42.95
2022-08-22T08:50:15.764Z,41.81
2022-08-22T08:53:24.200Z,39.71
2022-08-22T08:56:19.651Z,39.92
2022-08-22T08:59:14.473Z,38.70
2022-08-22T09:02:05.937Z,38.25
2022-08-22T09:05:09.338Z,38.17
2022-08-22T09:08:15.038Z,34.26
2022-08-22T09:11:46.651Z,32.76
2022-08-22T09:14:54.603Z,34.28
2022-08-22T09:18:05.175Z,35.45
2022-08-22T09:21:27.597Z,32.96
2022-08-22T09:24:41.272Z,32.21
2022-08-22T09:27:33.888Z,32.29
2022-08-22T09:30:28.715Z,32.74
2022-08-22T09:33:19.615Z,31.88
2022-08-22T09:36:22.186Z,30.78
2022-08-22T09:39:41.930Z,29.99
2022-08-22T09:43:05.601Z,31.19
2022-08-22T09:46:18.640Z,30.54
2022-08-22T09:49:08.473Z,30.02
2022-08-22T09:52:14.556Z,29.54
2022-08-22T09:55:11.729Z,28.33
2022-08-22T09:58:12.762Z,26.71
2022-08-22T10:01:20.763Z,27.13
2022-08-22T10:04:44.118Z,26.00
2022-08-22T10:08:11.691Z,31.49
2022-08-22T10:11:23.761Z,36.12
2022-08-22T10:14:24.118Z,39.12
2022-08-22T10:17:22.754Z,41.75
2022-08-22T10:20:29.905Z,42.83
2022-08-22T10:23:26.846Z,42.78
2022-08-22T10:26:38.818Z,42.61
2022-08-22T10:29:34.812Z,36.92
2022-08-22T10:32:26.949Z,37.57
2022-08-22T10:35:15.346Z,39.52
2022-08-22T10:38:07.425Z,41.20
2022-08-22T10:41:17.987Z,38.06
2022-08-22T10:44:23.728Z,39.83
2022-08-22T10:47:24.104Z,42.49
2022-08-22T10:50:20.244Z,42.22
2022-08-22T10:53:37.253Z,44.40
2022-08-22T10:56:32.093Z,43.61
2022-08-22T10:59:38.523Z,43.61
2022-08-22T11:02:35.000Z,42.96
2022-08-22T11:05:32.398Z,42.66
2022-08-22T11:08:34.696Z,43.87
2022-08-22T11:11:51.417Z,39.94
2022-08-22T11:14:43.728Z,32.40
2022-08-22T11:17:59.439Z,29.28
2022-08-22T11:20:57.201Z,35.25
2022-08-22T11:24:01.063Z,36.61
2022-08-22T11:27:17.743Z,30.59
2022-08-22T11:30:18.340Z,29.94
2022-08-22T11:33:46.437Z,29.87
2022-08-22T11:36:47.070Z,34.30
2022-08-22T11:39:43.401Z,37.35
2022-08-22T11:42:47.413Z,38.85
2022-08-22T11:45:42.778Z,39.52
2022-08-22T11:48:42.541Z,40.30
2022-08-22T11:52:10.865Z,40.39
2022-08-22T11:55:18.024Z,40.54
2022-08-22T11:58:35.827Z,39.64
2022-08-22T12:01:40.575Z,41.52
2022-08-22T12:04:44.167Z,38.07
2022-08-22T12:07:33.024Z,31.95
2022-08-22T12:10:26.060Z,31.31
2022-08-22T12:13:20.078Z,29.87
2022-08-22T12:17:02.604Z,26.66
2022-08-22T12:20:18.646Z,23.53
2022-08-22T12:23:22.952Z,24.59
2022-08-22T12:26:44.966Z,24.80
2022-08-22T12:29:48.692Z,24.33
2022-08-22T12:32:48.979Z,25.72
2022-08-22T12:35:52.958Z,24.85
2022-08-22T12:39:18.041Z,24.25
2022-08-22T12:42:31.882Z,23.62
2022-08-22T12:45:24.593Z,24.15
2022-08-22T12:48:47.657Z,24.54
2022-08-22T12:51:41.002Z,24.53
2022-08-22T12:54:39.893Z,23.51
2022-08-22T12:57:54.371Z,22.90
2022-08-22T13:00:45.182Z,23.83
2022-08-22T13:03:41.032Z,23.69
2022-08-22T13:06:42.130Z,24.93
2022-08-22T13:09:38.700Z,23.59
2022-08-22T13:12:33.033Z,23.64
2022-08-22T13:15:25.730Z,23.04
2022-08-22T13:18:30.533Z,23.74
2022-08-22T13:21:21.912Z,23.09
2022-08-22T13:24:16.996Z,23.58
2022-08-22T13:27:15.645Z,23.32
2022-08-22T13:30:07.489Z,26.08
2022-08-22T13:33:03.285Z,27.23
2022-08-22T13:36:21.280Z,28.95
2022-08-22T13:39:13.236Z,32.58
2022-08-22T13:42:04.102Z,33.75
2022-08-22T13:45:05.159Z,34.54
2022-08-22T13:48:03.811Z,35.41
2022-08-22T13:51:09.713Z,34.89
2022-08-22T13:54:18.720Z,32.24
2022-08-22T13:57:26.436Z,34.80
2022-08-22T14:00:28.792Z,35.63
2022-08-22T14:03:21.247Z,35.77
2022-08-22T14:06:37.074Z,37.02
2022-08-22T14:09:40.238Z,34.19
2022-08-22T14:12:33.526Z,30.70
2022-08-22T14:15:45.055Z,31.11
2022-08-22T14:18:36.487Z,29.55
2022-08-22T14:21:42.849Z,26.91
2022-08-22T14:24:45.401Z,25.86
2022-08-22T14:27:43.831Z,25.20
2022-08-22T14:30:37.157Z,25.04
2022-08-22T14:33:26.577Z,24.14
2022-08-22T14:36:24.840Z,24.49
2022-08-22T14:39:27.412Z,26.19
2022-08-22T14:42:24.270Z,25.65
2022-08-22T14:45:33.182Z,25.07
2022-08-22T14:48:31.429Z,26.04
2022-08-22T14:51:22.971Z,24.04
2022-08-22T14:54:21.038Z,23.68
2022-08-22T14:57:12.792Z,24.64
2022-08-22T15:00:12.228Z,24.70
2022-08-22T15:03:23.457Z,24.61
2022-08-22T15:06:28.932Z,25.20
2022-08-22T15:09:52.601Z,24.37
2022-08-22T15:12:45.057Z,25.11
2022-08-22T15:15:54.282Z,24.56
2022-08-22T15:18:41.510Z,24.65
2022-08-22T15:21:41.416Z,24.88
2022-08-22T15:24:28.320Z,25.88
2022-08-22T15:27:18.740Z,25.20
2022-08-22T15:30:20.388Z,25.51
2022-08-22T15:33:23.637Z,25.54
2022-08-22T15:36:15.859Z,25.04
2022-08-22T15:39:26.586Z,26.32
2022-08-22T15:42:25.943Z,27.09
2022-08-22T15:45:29.679Z,29.58
2022-08-22T15:48:30.948Z,30.97
2022-08-22T15:51:33.959Z,31.65
2022-08-22T15:54:46.867Z,31.78
2022-08-22T15:57:47.485Z,32.54
2022-08-22T16:00:43.706Z,33.00
2022-08-22T16:03:34.012Z,33.53
2022-08-22T16:06:44.840Z,34.52
2022-08-22T16:09:43.479Z,35.58
2022-08-22T16:12:34.712Z,35.74
2022-08-22T16:15:56.374Z,37.04
2022-08-22T16:18:45.023Z,38.32
2022-08-22T16:21:30.265Z,38.80
2022-08-22T16:24:15.914Z,38.71
2022-08-22T16:27:19.086Z,38.83
2022-08-22T16:30:12.749Z,39.38
2022-08-22T16:32:59.725Z,39.48
2022-08-22T16:36:16.269Z,40.12
2022-08-22T16:39:01.967Z,40.39
2022-08-22T16:41:54.108Z,41.28
2022-08-22T16:45:05.241Z,41.49
2022-08-22T16:47:58.211Z,42.16
2022-08-22T16:51:00.323Z,41.33
2022-08-22T16:54:06.600Z,42.19
2022-08-22T16:57:05.428Z,42.59
2022-08-22T17:00:22.772Z,42.79
2022-08-22T17:03:20.521Z,42.86
2022-08-22T17:06:23.177Z,43.18
2022-08-22T17:09:43.298Z,43.01
2022-08-22T17:12:38.148Z,43.12
2022-08-22T17:15:34.666Z,43.57
2022-08-22T17:18:29.352Z,44.16
2022-08-22T17:21:25.877Z,44.83
2022-08-22T17:24:33.613Z,44.25
2022-08-22T17:27:30.093Z,44.50
2022-08-22T17:30:28.434Z,45.63
2022-08-22T17:33:27.808Z,45.22
2022-08-22T17:36:27.601Z,45.89
2022-08-22T17:39:37.614Z,46.50
2022-08-22T17:42:44.727Z,46.69
2022-08-22T17:46:03.155Z,46.97
2022-08-22T17:49:21.701Z,47.79
2022-08-22T17:52:24.977Z,47.62
2022-08-22T17:55:21.723Z,47.90
2022-08-22T17:58:37.546Z,48.15
2022-08-22T18:01:37.383Z,48.97
2022-08-22T18:04:47.396Z,49.11
2022-08-22T18:07:44.987Z,49.55
2022-08-22T18:10:38.279Z,49.52
2022-08-22T18:13:45.607Z,49.99
2022-08-22T18:16:42.759Z,50.80
2022-08-22T18:19:51.543Z,51.35
2022-08-22T18:22:39.758Z,51.32
2022-08-22T18:26:17.490Z,51.66
2022-08-22T18:29:13.728Z,52.71
2022-08-22T18:32:14.230Z,52.39
2022-08-22T18:34:59.764Z,52.02
2022-08-22T18:38:23.092Z,52.97
2022-08-22T18:41:15.855Z,53.58
2022-08-22T18:44:11.092Z,53.65
2022-08-22T18:46:59.946Z,53.77
2022-08-22T18:49:48.503Z,54.20
2022-08-22T18:52:37.546Z,54.45
2022-08-22T18:55:53.530Z,54.61
2022-08-22T18:58:45.848Z,55.18
2022-08-22T19:02:08.446Z,55.21
2022-08-22T19:05:22.024Z,55.62
2022-08-22T19:08:44.694Z,56.14
2022-08-22T19:11:52.508Z,56.55
2022-08-22T19:14:59.704Z,56.47
2022-08-22T19:18:05.876Z,57.17
2022-08-22T19:21:32.856Z,57.66
2022-08-22T19:24:27.247Z,57.51
2022-08-22T19:27:18.420Z,58.04
2022-08-22T19:30:25.559Z,57.93
2022-08-22T19:33:34.527Z,59.15
2022-08-22T19:36:32.413Z,58.67
2022-08-22T19:39:54.409Z,59.52
2022-08-22T19:42:43.141Z,59.94
2022-08-22T19:45:29.298Z,59.99
2022-08-22T19:48:15.205Z,60.27
2022-08-22T19:51:20.529Z,60.33
2022-08-22T19:54:23.174Z,61.24
2022-08-22T19:57:18.786Z,61.76
2022-08-22T20:00:12.098Z,61.60
2022-08-22T20:03:05.291Z,61.81
2022-08-22T20:06:33.776Z,61.91
2022-08-22T20:09:42.499Z,62.26
2022-08-22T20:12:49.459Z,62.44
2022-08-22T20:16:02.847Z,63.64
2022-08-22T20:19:07.695Z,63.43
2022-08-22T20:22:03.731Z,63.89
2022-08-22T20:25:03.232Z,63.71
2022-08-22T20:28:02.689Z,64.14
2022-08-22T20:30:50.898Z,64.36
2022-08-22T20:33:43.391Z,64.09
2022-08-22T20:36:32.422Z,64.47
2022-08-22T20:39:25.386Z,64.71
2022-08-22T20:42:15.878Z,64.30
2022-08-22T20:45:12.265Z,65.48
2022-08-22T20:47:58.188Z,64.19
2022-08-22T20:50:43.800Z,64.32
2022-08-22T20:53:29.097Z,65.19
2022-08-22T20:56:14.959Z,65.22
2022-08-22T20:59:01.330Z,65.96
2022-08-22T21:01:47.305Z,66.22
2022-08-22T21:05:18.543Z,66.77
2022-08-22T21:08:26.392Z,68.56
2022-08-22T21:11:40.078Z,67.30
2022-08-22T21:14:31.432Z,67.76
2022-08-22T21:17:29.234Z,69.07
2022-08-22T21:20:22.160Z,67.93
2022-08-22T21:23:13.605Z,68.42
2022-08-22T21:26:24.928Z,69.10
2022-08-22T21:29:10.453Z,69.42
2022-08-22T21:32:14.110Z,68.94
2022-08-22T21:35:00.749Z,68.88
2022-08-22T21:37:46.447Z,68.73
2022-08-22T21:40:37.831Z,68.94
2022-08-22T21:43:34.046Z,69.44
2022-08-22T21:46:28.747Z,70.08
2022-08-22T21:49:26.090Z,70.83
2022-08-22T21:52:11.518Z,71.02
2022-08-22T21:55:30.063Z,71.23
2022-08-22T21:58:36.123Z,71.79
2022-08-22T22:01:31.580Z,71.68
2022-08-22T22:04:18.344Z,71.68
2022-08-22T22:07:04.046Z,72.28
2022-08-22T22:09:54.468Z,73.28
2022-08-22T22:12:42.375Z,72.31
2022-08-22T22:15:31.873Z,73.69
2022-08-22T22:18:23.856Z,73.01
2022-08-22T22:21:09.525Z,73.27
2022-08-22T22:23:58.393Z,73.32
2022-08-22T22:26:44.351Z,74.03
2022-08-22T22:29:29.741Z,73.91
2022-08-22T22:32:15.266Z,73.80
2022-08-22T22:35:00.598Z,73.81
2022-08-22T22:37:46.641Z,74.26
2022-08-22T22:40:32.173Z,74.73
2022-08-22T22:43:17.802Z,74.90
2022-08-22T22:46:03.592Z,75.38
2022-08-22T22:48:48.999Z,75.78
2022-08-22T22:51:34.617Z,76.19
2022-08-22T22:54:20.614Z,75.87
2022-08-22T22:57:14.536Z,76.52
2022-08-22T23:00:04.131Z,76.71
2022-08-22T23:02:49.697Z,76.32
2022-08-22T23:05:35.705Z,77.22
2022-08-22T23:08:20.969Z,77.69
2022-08-22T23:11:15.270Z,77.80
2022-08-22T23:14:01.567Z,78.40
2022-08-22T23:16:47.127Z,79.46
2022-08-22T23:19:32.911Z,79.90
2022-08-22T23:22:19.028Z,80.10
2022-08-22T23:25:05.198Z,79.53
2022-08-22T23:27:52.498Z,80.56
2022-08-22T23:30:37.961Z,80.89
2022-08-22T23:33:23.517Z,81.46
2022-08-22T23:36:15.793Z,81.68
2022-08-22T23:39:02.083Z,81.82
2022-08-22T23:41:48.170Z,82.01
2022-08-22T23:44:35.882Z,82.16
2022-08-22T23:47:21.288Z,81.82
2022-08-22T23:50:07.041Z,82.25
2022-08-22T23:52:52.639Z,83.10
2022-08-22T23:55:37.961Z,83.24
2022-08-22T23:58:23.371Z,83.58
